KBHK

Baker Municipal Airport

Baker, Montana, USA
METAR KBHK 190251Z AUTO 26004KT 10SM CLR 02/M02 A2970 RMK AO2 SLP074 T00171017 57004
Observed Flight Rules
Jan-19 @ 02:51 UTC (45 minutes ago) Visual Flight Rules
Wind Visibility Clouds
260° at 4 knots 10 miles
  • Clear skies
Temperatures Readings
Current 2°C / 36°F
Dewpoint -2°C / 28°F
Humidity 75%
Altimeter 29.7" Hg
Pressure 1007.4 hPa
Elevation 902
METAR KBHK 190251Z AUTO 26004KT 10SM CLR 02/M02 A2970 RMK AO2 SLP074 T00171017 57004
Observed Flight Rules
Jan-19 @ 02:51 UTC
(45 minutes ago)
VFR
Wind Visibility
260° at 4 knots 10 miles
Clouds
  • Clear skies
Temperature Dewpoint
2°C / 36°F -2°C / 28°F
Humidity Altimeter Pressure
75% 29.7" Hg 1007.4 hPa